createdAt,value
2022-08-18T00:02:28.901Z,100.00
2022-08-18T00:05:00.293Z,100.00
2022-08-18T00:07:31.802Z,100.00
2022-08-18T00:10:00.963Z,100.00
2022-08-18T00:12:34.085Z,100.00
2022-08-18T00:15:05.635Z,100.00
2022-08-18T00:17:35.343Z,100.00
2022-08-18T00:20:05.446Z,100.00
2022-08-18T00:22:33.381Z,100.00
2022-08-18T00:25:01.422Z,100.00
2022-08-18T00:27:32.858Z,100.00
2022-08-18T00:30:02.786Z,100.00
2022-08-18T00:32:41.791Z,100.00
2022-08-18T00:35:11.000Z,100.00
2022-08-18T00:37:38.986Z,100.00
2022-08-18T00:40:09.705Z,100.00
2022-08-18T00:42:45.301Z,100.00
2022-08-18T00:45:18.613Z,100.00
2022-08-18T00:47:46.996Z,100.00
2022-08-18T00:50:40.364Z,100.00
2022-08-18T00:53:14.239Z,100.00
2022-08-18T00:55:53.990Z,100.00
2022-08-18T00:58:56.154Z,100.00
2022-08-18T01:01:28.687Z,100.00
2022-08-18T01:04:04.593Z,100.00
2022-08-18T01:07:30.474Z,100.00
2022-08-18T01:10:03.216Z,100.00
2022-08-18T01:12:45.170Z,100.00
2022-08-18T01:15:29.037Z,100.00
2022-08-18T01:18:21.581Z,100.00
2022-08-18T01:21:38.062Z,100.00
2022-08-18T01:24:10.304Z,100.00
2022-08-18T01:26:44.297Z,100.00
2022-08-18T01:29:18.951Z,100.00
2022-08-18T01:31:55.682Z,100.00
2022-08-18T01:34:26.428Z,100.00
2022-08-18T01:36:55.550Z,100.00
2022-08-18T01:41:24.808Z,100.00
2022-08-18T01:42:13.948Z,100.00
2022-08-18T01:44:41.844Z,100.00
2022-08-18T01:47:11.595Z,100.00
2022-08-18T01:49:44.032Z,100.00
2022-08-18T01:52:19.515Z,100.00
2022-08-18T01:54:52.092Z,100.00
2022-08-18T01:57:21.691Z,100.00
2022-08-18T01:59:49.657Z,100.00
2022-08-18T02:02:25.226Z,100.00
2022-08-18T02:04:58.204Z,100.00
2022-08-18T02:07:34.318Z,100.00
2022-08-18T02:10:11.917Z,100.00
2022-08-18T02:12:41.540Z,100.00
2022-08-18T02:15:10.026Z,100.00
2022-08-18T02:17:39.796Z,100.00
2022-08-18T02:20:10.265Z,100.00
2022-08-18T02:22:38.822Z,100.00
2022-08-18T02:25:07.349Z,100.00
2022-08-18T02:27:35.488Z,100.00
2022-08-18T02:30:07.384Z,100.00
2022-08-18T02:32:35.160Z,100.00
2022-08-18T02:35:03.451Z,100.00
2022-08-18T02:37:34.285Z,100.00
2022-08-18T02:40:02.031Z,100.00
2022-08-18T02:42:31.105Z,100.00
2022-08-18T02:44:59.033Z,100.00
2022-08-18T02:47:31.481Z,100.00
2022-08-18T02:50:01.433Z,100.00
2022-08-18T02:52:32.791Z,100.00
2022-08-18T02:55:04.167Z,100.00
2022-08-18T02:57:32.785Z,100.00
2022-08-18T03:00:01.232Z,100.00
2022-08-18T03:02:28.993Z,100.00
2022-08-18T03:04:57.037Z,100.00
2022-08-18T03:07:25.479Z,100.00
2022-08-18T03:09:53.254Z,100.00
2022-08-18T03:12:21.121Z,100.00
2022-08-18T03:14:49.496Z,100.00
2022-08-18T03:17:17.250Z,100.00
2022-08-18T03:19:47.804Z,100.00
2022-08-18T03:22:27.763Z,100.00
2022-08-18T03:24:58.300Z,100.00
2022-08-18T03:27:27.160Z,100.00
2022-08-18T03:29:55.104Z,100.00
2022-08-18T03:32:22.972Z,100.00
2022-08-18T03:34:50.768Z,100.00
2022-08-18T03:37:18.575Z,100.00
2022-08-18T03:39:46.619Z,100.00
2022-08-18T03:42:14.407Z,100.00
2022-08-18T03:44:42.096Z,100.00
2022-08-18T03:47:11.026Z,100.00
2022-08-18T03:49:39.093Z,100.00
2022-08-18T03:52:09.984Z,100.00
2022-08-18T03:54:39.390Z,100.00
2022-08-18T03:59:58.237Z,100.00
2022-08-18T04:02:26.138Z,100.00
2022-08-18T04:04:53.973Z,100.00
2022-08-18T04:07:21.962Z,100.00
2022-08-18T04:09:49.647Z,100.00
2022-08-18T04:12:17.770Z,100.00
2022-08-18T04:14:49.139Z,100.00
2022-08-18T04:17:27.321Z,100.00
2022-08-18T04:19:56.362Z,100.00
2022-08-18T04:22:25.382Z,100.00
2022-08-18T04:24:54.038Z,100.00
2022-08-18T04:27:22.649Z,100.00
2022-08-18T04:29:51.141Z,100.00
2022-08-18T04:32:19.617Z,100.00
2022-08-18T04:34:47.490Z,100.00
2022-08-18T04:37:15.964Z,100.00
2022-08-18T04:39:45.135Z,100.00
2022-08-18T04:42:13.044Z,100.00
2022-08-18T04:44:41.840Z,100.00
2022-08-18T04:47:10.131Z,100.00
2022-08-18T04:49:38.163Z,100.00
2022-08-18T04:52:38.637Z,100.00
2022-08-18T04:55:10.441Z,100.00
2022-08-18T04:57:38.227Z,100.00
2022-08-18T05:00:08.708Z,100.00
2022-08-18T05:02:36.805Z,100.00
2022-08-18T05:05:05.258Z,100.00
2022-08-18T05:07:33.428Z,100.00
2022-08-18T05:10:01.673Z,100.00
2022-08-18T05:12:29.718Z,100.00
2022-08-18T05:14:57.798Z,100.00
2022-08-18T05:17:30.137Z,100.00
2022-08-18T05:20:00.164Z,100.00
2022-08-18T05:22:30.869Z,100.00
2022-08-18T05:27:45.571Z,98.97
2022-08-18T05:30:15.267Z,98.60
2022-08-18T05:32:48.776Z,97.86
2022-08-18T05:35:23.511Z,97.70
2022-08-18T05:38:15.693Z,97.26
2022-08-18T05:40:46.201Z,96.58
2022-08-18T05:43:16.475Z,96.17
2022-08-18T05:45:44.560Z,94.94
2022-08-18T05:48:13.995Z,94.20
2022-08-18T05:50:42.078Z,93.00
2022-08-18T05:53:16.359Z,92.26
2022-08-18T05:56:11.742Z,91.40
2022-08-18T05:58:44.133Z,90.78
2022-08-18T06:01:41.866Z,89.58
2022-08-18T06:04:35.637Z,88.61
2022-08-18T06:07:10.496Z,87.69
2022-08-18T06:09:51.045Z,87.26
2022-08-18T06:12:46.704Z,85.96
2022-08-18T06:15:24.332Z,84.19
2022-08-18T06:17:55.170Z,83.29
2022-08-18T06:20:32.407Z,83.11
2022-08-18T06:23:15.330Z,81.32
2022-08-18T06:26:04.688Z,81.21
2022-08-18T06:28:53.035Z,80.16
2022-08-18T06:31:42.828Z,79.09
2022-08-18T06:34:37.329Z,78.52
2022-08-18T06:37:20.114Z,78.17
2022-08-18T06:39:50.597Z,78.11
2022-08-18T06:42:30.825Z,77.53
2022-08-18T06:45:13.944Z,76.99
2022-08-18T06:48:15.231Z,75.30
2022-08-18T06:50:46.565Z,75.40
2022-08-18T06:53:27.381Z,74.15
2022-08-18T06:55:56.509Z,73.28
2022-08-18T06:58:31.488Z,71.70
2022-08-18T07:01:05.291Z,70.83
2022-08-18T07:03:36.329Z,70.78
2022-08-18T07:06:24.025Z,70.88
2022-08-18T07:08:54.730Z,69.23
2022-08-18T07:11:33.212Z,65.99
2022-08-18T07:14:23.232Z,62.91
2022-08-18T07:17:00.036Z,59.78
2022-08-18T07:19:32.961Z,56.72
2022-08-18T07:22:12.645Z,55.51
2022-08-18T07:24:44.970Z,54.60
2022-08-18T07:27:39.149Z,54.64
2022-08-18T07:30:10.134Z,54.51
2022-08-18T07:32:58.118Z,54.60
2022-08-18T07:35:42.852Z,53.83
2022-08-18T07:38:41.449Z,53.75
2022-08-18T07:41:28.725Z,49.49
2022-08-18T07:44:22.593Z,43.38
2022-08-18T07:46:58.751Z,38.57
2022-08-18T07:49:33.508Z,35.24
2022-08-18T07:52:43.686Z,32.33
2022-08-18T07:55:29.947Z,29.81
2022-08-18T07:58:06.831Z,28.23
2022-08-18T08:01:00.313Z,26.96
2022-08-18T08:03:28.367Z,26.10
2022-08-18T08:06:18.675Z,25.51
2022-08-18T08:08:57.038Z,24.87
2022-08-18T08:11:35.788Z,24.29
2022-08-18T08:14:26.747Z,23.76
2022-08-18T08:17:07.410Z,22.82
2022-08-18T08:20:03.944Z,22.87
2022-08-18T08:22:52.696Z,22.19
2022-08-18T08:25:47.584Z,22.04
2022-08-18T08:28:18.990Z,22.76
2022-08-18T08:30:55.903Z,22.70
2022-08-18T08:33:40.215Z,22.16
2022-08-18T08:36:33.422Z,22.04
2022-08-18T08:39:36.246Z,21.50
2022-08-18T08:42:30.822Z,21.94
2022-08-18T08:45:42.448Z,21.94
2022-08-18T08:48:11.528Z,20.49
2022-08-18T08:51:17.086Z,20.62
2022-08-18T08:53:51.282Z,20.96
2022-08-18T08:56:21.887Z,21.04
2022-08-18T08:59:09.094Z,21.51
2022-08-18T09:01:44.733Z,21.54
2022-08-18T09:05:07.357Z,21.42
2022-08-18T09:08:00.630Z,20.88
2022-08-18T09:10:46.167Z,20.86
2022-08-18T09:13:43.804Z,21.57
2022-08-18T09:16:27.767Z,21.07
2022-08-18T09:19:18.693Z,21.20
2022-08-18T09:22:04.689Z,21.66
2022-08-18T09:24:47.314Z,21.60
2022-08-18T09:28:08.904Z,21.78
2022-08-18T09:31:07.281Z,21.52
2022-08-18T09:33:48.516Z,21.74
2022-08-18T09:36:34.471Z,21.01
2022-08-18T09:39:53.144Z,21.31
2022-08-18T09:42:50.121Z,21.21
2022-08-18T09:45:47.426Z,21.47
2022-08-18T09:48:25.425Z,21.55
2022-08-18T09:51:20.920Z,21.45
2022-08-18T09:53:53.956Z,21.68
2022-08-18T09:59:37.582Z,21.98
2022-08-18T10:02:24.109Z,21.24
2022-08-18T10:05:19.119Z,22.04
2022-08-18T10:08:08.412Z,22.40
2022-08-18T10:11:08.582Z,22.59
2022-08-18T10:13:45.130Z,22.87
2022-08-18T10:16:22.091Z,22.85
2022-08-18T10:19:18.054Z,23.46
2022-08-18T10:22:06.620Z,23.77
2022-08-18T10:24:38.546Z,26.15
2022-08-18T10:27:30.929Z,28.60
2022-08-18T10:29:59.893Z,29.69
2022-08-18T10:32:40.737Z,30.87
2022-08-18T10:35:36.876Z,31.79
2022-08-18T10:38:10.604Z,33.70
2022-08-18T10:40:40.590Z,34.28
2022-08-18T10:46:25.232Z,35.00
2022-08-18T10:49:07.030Z,35.37
2022-08-18T10:52:16.679Z,35.91
2022-08-18T10:55:10.312Z,36.22
2022-08-18T10:58:17.171Z,36.85
2022-08-18T11:00:52.968Z,37.71
2022-08-18T11:03:52.013Z,37.37
2022-08-18T11:06:21.836Z,37.10
2022-08-18T11:08:59.412Z,37.67
2022-08-18T11:11:42.304Z,38.16
2022-08-18T11:14:45.357Z,37.87
2022-08-18T11:17:46.719Z,37.48
2022-08-18T11:20:18.683Z,37.30
2022-08-18T11:22:56.777Z,38.02
2022-08-18T11:25:38.630Z,38.29
2022-08-18T11:28:18.281Z,38.06
2022-08-18T11:30:51.261Z,37.52
2022-08-18T11:33:22.678Z,37.67
2022-08-18T11:35:58.466Z,37.39
2022-08-18T11:38:29.446Z,37.45
2022-08-18T11:41:24.340Z,37.80
2022-08-18T11:44:03.262Z,38.92
2022-08-18T11:49:33.943Z,37.98
2022-08-18T11:52:26.161Z,38.45
2022-08-18T11:55:16.502Z,39.51
2022-08-18T11:57:56.126Z,39.42
2022-08-18T12:00:48.834Z,38.54
2022-08-18T12:03:44.631Z,39.26
2022-08-18T12:06:19.354Z,38.96
2022-08-18T12:09:01.860Z,40.44
2022-08-18T12:11:49.053Z,39.91
2022-08-18T12:14:30.673Z,39.90
2022-08-18T12:17:03.382Z,40.02
2022-08-18T12:19:34.374Z,38.86
2022-08-18T12:22:12.676Z,38.33
2022-08-18T12:24:40.794Z,38.95
2022-08-18T12:27:20.626Z,38.16
2022-08-18T12:29:55.329Z,37.78
2022-08-18T12:32:50.048Z,37.59
2022-08-18T12:35:15.624Z,38.51
2022-08-18T12:38:13.267Z,39.50
2022-08-18T12:40:38.212Z,39.57
2022-08-18T12:43:06.873Z,40.53
2022-08-18T12:45:37.967Z,41.94
2022-08-18T12:48:07.738Z,42.18
2022-08-18T12:53:29.757Z,40.76
2022-08-18T12:56:19.914Z,39.65
2022-08-18T12:58:48.439Z,39.18
2022-08-18T13:01:20.182Z,38.30
2022-08-18T13:04:10.888Z,38.25
2022-08-18T13:07:00.180Z,38.19
2022-08-18T13:09:52.507Z,37.97
2022-08-18T13:12:22.553Z,38.10
2022-08-18T13:14:54.807Z,38.55
2022-08-18T13:17:32.893Z,38.74
2022-08-18T13:20:06.441Z,38.79
2022-08-18T13:22:37.025Z,39.12
2022-08-18T13:25:07.365Z,40.13
2022-08-18T13:27:37.303Z,40.69
2022-08-18T13:30:16.864Z,40.51
2022-08-18T13:33:05.564Z,40.44
2022-08-18T13:35:54.108Z,39.79
2022-08-18T13:38:27.153Z,40.00
2022-08-18T13:40:59.365Z,39.35
2022-08-18T13:43:39.271Z,39.60
2022-08-18T13:46:09.856Z,39.06
2022-08-18T13:48:41.600Z,39.20
2022-08-18T13:51:17.973Z,39.29
2022-08-18T13:53:57.695Z,39.41
2022-08-18T13:56:34.696Z,38.74
2022-08-18T13:59:05.358Z,38.91
2022-08-18T14:01:44.175Z,38.95
2022-08-18T14:04:20.627Z,38.93
2022-08-18T14:06:56.189Z,39.36
2022-08-18T14:09:36.703Z,39.41
2022-08-18T14:12:21.521Z,39.85
2022-08-18T14:14:54.299Z,38.79
2022-08-18T14:17:24.753Z,38.53
2022-08-18T14:20:15.244Z,38.34
2022-08-18T14:23:13.743Z,38.37
2022-08-18T14:26:00.949Z,38.82
2022-08-18T14:28:33.121Z,39.77
2022-08-18T14:31:03.827Z,38.82
2022-08-18T14:33:50.684Z,39.21
2022-08-18T14:36:30.151Z,39.65
2022-08-18T14:38:59.504Z,38.89
2022-08-18T14:41:28.117Z,38.73
2022-08-18T14:44:11.344Z,39.19
2022-08-18T14:46:54.580Z,39.09
2022-08-18T14:49:29.588Z,39.40
2022-08-18T14:52:01.748Z,39.46
2022-08-18T14:54:31.198Z,39.57
2022-08-18T14:57:01.783Z,39.66
2022-08-18T14:59:34.656Z,39.73
2022-08-18T15:02:13.298Z,39.39
2022-08-18T15:04:53.034Z,39.52
2022-08-18T15:07:25.120Z,39.51
2022-08-18T15:10:15.075Z,38.93
2022-08-18T15:12:43.868Z,39.25
2022-08-18T15:15:17.723Z,39.16
2022-08-18T15:17:50.417Z,38.48
2022-08-18T15:20:28.665Z,39.04
2022-08-18T15:23:22.823Z,39.66
2022-08-18T15:25:54.327Z,39.61
2022-08-18T15:28:27.142Z,39.78
2022-08-18T15:33:43.188Z,40.64
2022-08-18T15:36:16.356Z,41.29
2022-08-18T15:38:44.660Z,41.73
2022-08-18T15:41:34.722Z,42.49
2022-08-18T15:44:05.765Z,42.55
2022-08-18T15:46:36.456Z,43.31
2022-08-18T15:49:10.356Z,43.61
2022-08-18T15:51:42.385Z,44.26
2022-08-18T15:54:13.478Z,44.63
2022-08-18T15:56:43.379Z,44.95
2022-08-18T15:59:11.220Z,45.24
2022-08-18T16:01:43.436Z,45.29
2022-08-18T16:04:11.879Z,46.13
2022-08-18T16:06:40.981Z,46.33
2022-08-18T16:09:09.785Z,46.74
2022-08-18T16:11:37.523Z,47.31
2022-08-18T16:14:05.372Z,47.32
2022-08-18T16:16:36.324Z,47.58
2022-08-18T16:19:07.954Z,47.84
2022-08-18T16:21:39.898Z,48.41
2022-08-18T16:24:08.630Z,48.65
2022-08-18T16:26:36.359Z,49.07
2022-08-18T16:29:05.094Z,49.26
2022-08-18T16:31:33.784Z,49.71
2022-08-18T16:34:01.527Z,49.90
2022-08-18T16:36:29.931Z,50.50
2022-08-18T16:38:58.371Z,50.94
2022-08-18T16:41:26.891Z,51.42
2022-08-18T16:43:56.407Z,51.61
2022-08-18T16:46:27.038Z,52.21
2022-08-18T16:48:56.026Z,52.82
2022-08-18T16:51:26.605Z,53.50
2022-08-18T16:53:54.654Z,53.50
2022-08-18T16:56:25.664Z,54.14
2022-08-18T16:59:13.107Z,54.69
2022-08-18T17:02:00.725Z,55.16
2022-08-18T17:04:33.496Z,55.30
2022-08-18T17:07:04.926Z,55.95
2022-08-18T17:09:34.525Z,56.48
2022-08-18T17:12:02.803Z,57.67
2022-08-18T17:14:32.394Z,57.79
2022-08-18T17:17:00.676Z,57.62
2022-08-18T17:19:33.246Z,57.38
2022-08-18T17:22:03.118Z,57.82
2022-08-18T17:24:32.529Z,57.67
2022-08-18T17:27:27.156Z,57.71
2022-08-18T17:30:01.646Z,58.54
2022-08-18T17:32:52.061Z,59.34
2022-08-18T17:35:36.960Z,60.16
2022-08-18T17:38:14.489Z,60.77
2022-08-18T17:40:53.040Z,61.95
2022-08-18T17:43:25.933Z,62.79
2022-08-18T17:45:59.042Z,63.41
2022-08-18T17:48:42.506Z,64.16
2022-08-18T17:51:43.407Z,65.49
2022-08-18T17:54:19.212Z,65.95
2022-08-18T17:56:54.524Z,67.21
2022-08-18T18:00:05.715Z,67.92
2022-08-18T18:02:41.294Z,68.80
2022-08-18T18:05:12.302Z,69.54
2022-08-18T18:07:51.866Z,70.18
2022-08-18T18:10:28.423Z,71.19
2022-08-18T18:13:09.343Z,72.49
2022-08-18T18:15:40.022Z,72.82
2022-08-18T18:18:24.889Z,73.61
2022-08-18T18:21:21.581Z,74.08
2022-08-18T18:23:55.632Z,74.81
2022-08-18T18:26:28.838Z,75.74
2022-08-18T18:29:38.078Z,75.81
2022-08-18T18:32:31.754Z,76.39
2022-08-18T18:35:27.587Z,76.48
2022-08-18T18:38:01.829Z,77.40
2022-08-18T18:40:56.699Z,78.02
2022-08-18T18:43:35.910Z,78.10
2022-08-18T18:46:22.553Z,78.38
2022-08-18T18:52:30.599Z,80.18
2022-08-18T18:55:06.759Z,80.96
2022-08-18T18:57:49.284Z,81.52
2022-08-18T19:00:30.305Z,82.32
2022-08-18T19:03:06.434Z,82.87
2022-08-18T19:05:54.493Z,83.15
2022-08-18T19:08:46.477Z,83.49
2022-08-18T19:11:20.284Z,83.98
2022-08-18T19:14:03.120Z,83.92
2022-08-18T19:16:42.461Z,84.52
2022-08-18T19:19:38.144Z,84.92
2022-08-18T19:22:18.634Z,85.40
2022-08-18T19:25:03.554Z,85.96
2022-08-18T19:27:42.973Z,86.32
2022-08-18T19:30:14.708Z,86.54
2022-08-18T19:32:47.835Z,86.47
2022-08-18T19:35:35.301Z,86.33
2022-08-18T19:38:50.013Z,86.15
2022-08-18T19:41:43.873Z,86.22
2022-08-18T19:44:20.351Z,86.40
2022-08-18T19:46:52.244Z,86.43
2022-08-18T19:49:25.075Z,86.07
2022-08-18T19:52:46.332Z,86.21
2022-08-18T19:55:19.031Z,86.84
2022-08-18T19:57:58.891Z,87.16
2022-08-18T20:00:56.875Z,87.81
2022-08-18T20:03:35.982Z,88.60
2022-08-18T20:06:34.094Z,89.14
2022-08-18T20:09:14.963Z,89.23
2022-08-18T20:12:28.658Z,89.32
2022-08-18T20:15:22.351Z,90.05
2022-08-18T20:17:53.229Z,90.67
2022-08-18T20:20:22.259Z,91.09
2022-08-18T20:22:56.839Z,91.37
2022-08-18T20:25:25.042Z,91.29
2022-08-18T20:28:00.194Z,91.51
2022-08-18T20:30:48.768Z,91.95
2022-08-18T20:33:25.833Z,91.98
2022-08-18T20:36:06.892Z,92.00
2022-08-18T20:38:45.674Z,92.05
2022-08-18T20:41:41.112Z,92.24
2022-08-18T20:44:29.467Z,92.38
2022-08-18T20:47:12.762Z,92.91
2022-08-18T20:50:14.630Z,92.83
2022-08-18T20:53:03.928Z,93.12
2022-08-18T20:55:42.072Z,93.31
2022-08-18T20:58:15.931Z,93.74
2022-08-18T21:00:48.666Z,94.20
2022-08-18T21:03:20.702Z,94.34
2022-08-18T21:05:56.403Z,94.56
2022-08-18T21:08:30.984Z,95.04
2022-08-18T21:11:03.134Z,95.23
2022-08-18T21:13:41.626Z,95.57
2022-08-18T21:16:12.430Z,96.10
2022-08-18T21:18:49.538Z,96.34
2022-08-18T21:21:30.565Z,96.65
2022-08-18T21:24:01.147Z,96.84
2022-08-18T21:26:30.876Z,96.59
2022-08-18T21:29:11.263Z,96.79
2022-08-18T21:31:45.284Z,96.51
2022-08-18T21:34:18.539Z,95.99
2022-08-18T21:36:55.826Z,96.03
2022-08-18T21:39:24.616Z,95.82
2022-08-18T21:41:55.979Z,95.94
2022-08-18T21:44:43.401Z,96.02
2022-08-18T21:47:32.954Z,95.87
2022-08-18T21:50:09.877Z,95.53
2022-08-18T21:52:52.000Z,95.31
2022-08-18T21:55:31.766Z,95.62
2022-08-18T21:58:32.751Z,95.40
2022-08-18T22:01:11.130Z,95.42
2022-08-18T22:04:00.418Z,95.35
2022-08-18T22:06:34.257Z,95.29
2022-08-18T22:09:30.529Z,95.07
2022-08-18T22:12:52.254Z,94.95
2022-08-18T22:15:20.178Z,94.57
2022-08-18T22:18:28.577Z,94.19
2022-08-18T22:21:01.503Z,93.61
2022-08-18T22:24:03.784Z,92.81
2022-08-18T22:26:37.157Z,92.28
2022-08-18T22:29:10.455Z,91.78
2022-08-18T22:31:44.419Z,91.36
2022-08-18T22:34:16.463Z,91.00
2022-08-18T22:36:48.545Z,90.65
2022-08-18T22:39:37.306Z,90.63
2022-08-18T22:42:06.432Z,90.34
2022-08-18T22:44:34.336Z,90.10
2022-08-18T22:47:03.948Z,89.95
2022-08-18T22:49:35.887Z,89.64
2022-08-18T22:52:22.609Z,89.62
2022-08-18T22:54:59.499Z,89.72
2022-08-18T22:57:33.441Z,89.43
2022-08-18T23:00:07.836Z,89.21
2022-08-18T23:02:37.971Z,88.94
2022-08-18T23:05:06.539Z,88.46
2022-08-18T23:07:34.291Z,88.15
2022-08-18T23:10:02.034Z,87.79
2022-08-18T23:12:36.061Z,87.29
2022-08-18T23:15:11.738Z,87.59
2022-08-18T23:17:41.444Z,87.77
2022-08-18T23:20:17.445Z,87.85
2022-08-18T23:22:47.834Z,88.15
2022-08-18T23:25:16.158Z,88.62
2022-08-18T23:27:44.145Z,89.18
2022-08-18T23:30:13.304Z,89.62
2022-08-18T23:32:40.951Z,89.46
2022-08-18T23:35:08.785Z,89.33
2022-08-18T23:37:36.617Z,89.29
2022-08-18T23:40:05.164Z,89.36
2022-08-18T23:42:32.852Z,89.49
2022-08-18T23:45:04.068Z,90.24
2022-08-18T23:47:31.991Z,90.18
2022-08-18T23:49:59.730Z,90.68
2022-08-18T23:52:27.648Z,90.51
2022-08-18T23:54:55.252Z,90.85
2022-08-18T23:57:22.889Z,91.09
2022-08-18T23:59:50.793Z,91.77
